Rechercher aéroport 
image banner adimage banner ad
image banner ad

SVWP - El Paraiso

Situé à Barinas, Venezuela

ICAO - , IATA -

Données fournies par Airmate  

Information générale

Coordonnées: N8°20'0" W70°22'30"
Élévation : feet MSL.
 
Voir autres Aéroports à Barinas

Données opérationnelles

Accessible au public
Heure actuelle UTC:
Heure actuelle locale:
METAR: SVBI 261002Z AUTO 29003KT NCD 25/20 Q1015
Voir NOTAMs / SUP AIP / TFR affectant cet aéroport [VIEW]
Fréquences de communication: [VIEW]

Pistes:

Identifiant RWYQFULongueur (ft)Largeur (ft)SurfaceLDA (ft)
0300
2100

Coordonnées de l'aéroport

Adresse: Barinas Venezuela

Vue satellite de SVWP